• Join FlightAware (Why Join?)
  • Login
  • US Flag 
10:27AM EDT


 

Airport Tracker/Info


-or-


 

Live Flight TrackerFlight Track Log ✈ AWI4084 ✈ 14-Jun-2013 ✈ KDCA - KSYR

Flight Track Log - Related Links

Times and Time Zones

All times are in EDT time to prevent confusion due to time zone crossing. See the AWI4084 flight status page for this flight to view local times or setup timezone preferences in your user account.

Time Position Orientation Groundspeed Altitude Reporting Facility
EDT Latitude Longitude Course Direction KTS MPH feet Rate Location/Type
03:54PM 38.8833 -77.0667 346° North 177 204 2,200  Level Potomac TRACON
03:55PM 38.9333 -77.1333 314° West 230 265 4,600 2,220 Climbing Potomac TRACON
03:57PM 39.1763 -77.2126 336° Northwest  Level FlightAware Approximate
03:57PM 38.9936 -77.2528 303° West 247 284 8,600  Level Washington Center
03:58PM 39.2623 -77.2494 337° Northwest  Level FlightAware Approximate
03:58PM 39.0233 -77.3683 288° West 269 310 11,700  Level Washington Center
03:59PM 39.3459 -77.2958 337° Northwest  Level FlightAware Approximate
03:59PM 39.0869 -77.4289 324° Northwest 271 312 13,000  Level Washington Center
04:00PM 39.4295 -77.3320 346° North  Level FlightAware Approximate
04:00PM 39.1703 -77.4281 360° North 271 312 14,600  Level Washington Center
04:01PM 39.2642 -77.4333 358° North 301 346 16,100 1,440 Climbing Washington Center
04:02PM 39.3578 -77.4383 358° North 326 375 17,600 1,380 Climbing Washington Center
04:03PM 39.4536 -77.4433 358° North 337 388 18,900 1,140 Climbing Washington Center
04:05PM 39.6614 -77.4567 357° North 376 433 21,200 1,200 Climbing New York Center
04:06PM 39.7589 -77.4281 13° North 376 433 22,700 1,500 Climbing New York Center
04:07PM 39.8511 -77.3800 22° Northeast 356 410 24,300 1,140 Climbing New York Center
04:08PM 39.9417 -77.3289 23° Northeast 351 404 25,000 300 Climbing New York Center
04:09PM 40.0381 -77.2811 21° North 356 410 25,000  Level New York Center
04:10PM 40.1411 -77.2256 22° Northeast 361 415 25,000  Level New York Center
04:11PM 40.2375 -77.1800 20° North 361 415 25,000  Level New York Center
04:12PM 40.3300 -77.1286 23° Northeast 361 415 25,000  Level New York Center
04:13PM 40.4242 -77.0800 21° North 361 415 25,000  Level New York Center
04:14PM 40.5164 -77.0311 22° Northeast 361 415 25,000  Level New York Center
04:15PM 40.6086 -76.9850 21° North 361 415 25,000  Level New York Center
04:16PM 40.6986 -76.9356 23° Northeast 356 410 25,000  Level New York Center
04:17PM 40.7908 -76.8861 22° Northeast 356 410 25,000  Level New York Center
04:18PM 40.8831 -76.8369 22° Northeast 356 410 25,000  Level New York Center
04:19PM 40.9731 -76.7872 23° Northeast 356 410 25,000 -720 Level New York Center
04:20PM 41.0672 -76.7378 22° Northeast 356 410 23,600 -1,020 Descending New York Center
04:21PM 41.1636 -76.6856 22° Northeast 361 415 23,000 -300 Descending New York Center
04:22PM 41.2578 -76.6358 22° Northeast 361 415 23,000  Level New York Center
04:23PM 41.3497 -76.5858 22° Northeast 361 415 23,000  Level New York Center
04:24PM 41.4397 -76.5381 22° Northeast 355 409 23,000  Level New York Center
04:25PM 41.5275 -76.4875 23° Northeast 350 403 23,000  Level New York Center
04:26PM 41.6175 -76.4369 23° Northeast 345 397 23,000 -360 Level New York Center
04:27PM 41.7072 -76.3889 22° Northeast 345 397 22,300 -1,200 Descending New York Center
04:28PM 41.8061 -76.3639 11° North 345 397 20,700 -1,620 Descending New York Center
04:29PM 41.9050 -76.3444 North 350 403 19,200 -1,500 Descending New York Center
04:30PM 41.9975 -76.3242 North 350 403 17,700 -1,560 Descending New York Center
04:31PM 42.0942 -76.3072 North 350 403 16,100 -1,680 Descending New York Center
04:32PM 42.1803 -76.2919 North 338 389 14,500 -1,620 Descending New York Center
04:33PM 42.2622 -76.2767 North 314 361 12,900 -1,080 Descending New York Center
04:36PM 42.4514 -76.2392 North 286 329 11,000 -540 Descending Boston Center
04:37PM 42.5544 -76.2172 North 293 337 11,100 -120 Climbing Boston Center
04:38PM 42.6297 -76.2050 North 296 341 10,800 -1,200 Descending Boston Center
04:39PM 42.7053 -76.1925 North 265 305 8,900 -1,980 Descending Boston Center
04:40PM 42.7708 -76.1628 18° North 256 295 6,900 -1,980 Descending Boston Center
04:41PM 42.8406 -76.1328 18° North 253 291 5,000 -1,800 Descending Boston Center
04:42PM 42.8956 -76.1106 16° North 247 284 3,600 -840 Descending Boston Center
04:43PM 42.9592 -76.0803 19° North 247 284 3,500 -120 Descending Boston Center